Time;durP1;ratioP1;P1;durP2;ratioP2;P2;SDS_P1;SDS_P2;PMS_P1;PMS_P2;Temp;Humidity;BMP_temperature;BMP_pressure;BME280_temperature;BME280_humidity;BME280_pressure;Samples;Min_cycle;Max_cycle;Signal;HPM_P1;HPM_P2
2023/08/27 00:00:26;;;;;;;6.38;2.65;;;;;;;20.17;74.02;97376.88;10496780;28;20551;-67
2023/08/27 00:06:08;;;;;;;7.20;2.10;;;;;;;20.06;74.68;97383.66;10438874;28;20072;-66
2023/08/27 00:11:29;;;;;;;7.70;2.22;;;;;;;19.83;75.16;97385.22;10455931;28;20120;-67
2023/08/27 00:16:50;;;;;;;4.93;2.15;;;;;;;19.73;75.67;97388.50;10450436;28;20119;-66
2023/08/27 00:22:11;;;;;;;6.95;2.42;;;;;;;19.68;75.96;97384.13;10455613;28;20112;-67
2023/08/27 00:27:33;;;;;;;6.40;2.05;;;;;;;19.62;75.48;97383.97;10455323;28;20044;-65
2023/08/27 00:32:54;;;;;;;7.35;1.65;;;;;;;19.51;75.93;97373.03;10436755;28;20462;-66
2023/08/27 00:38:15;;;;;;;5.82;1.88;;;;;;;19.44;75.91;97363.66;10440618;28;20117;-65
2023/08/27 00:43:36;;;;;;;4.53;1.70;;;;;;;19.37;76.10;97359.94;10434237;28;20095;-66
2023/08/27 00:48:57;;;;;;;5.07;1.25;;;;;;;19.32;76.51;97349.91;10455755;28;20117;-66
2023/08/27 00:54:18;;;;;;;3.13;1.50;;;;;;;19.25;76.43;97353.94;10439731;28;20084;-66
2023/08/27 00:59:38;;;;;;;6.75;1.80;;;;;;;19.12;76.62;97355.72;10434461;28;20049;-66
2023/08/27 01:04:59;;;;;;;3.60;1.67;;;;;;;19.08;76.69;97354.88;10455048;28;20470;-67
2023/08/27 01:10:36;;;;;;;2.35;1.40;;;;;;;19.04;76.90;97355.50;10444822;28;20048;-66
2023/08/27 01:16:00;;;;;;;4.22;1.30;;;;;;;19.02;76.42;97349.78;10462146;28;20124;-66
2023/08/27 01:21:25;;;;;;;4.20;1.35;;;;;;;19.04;76.22;97343.47;10439080;28;20120;-66
2023/08/27 01:27:06;;;;;;;3.53;1.33;;;;;;;19.02;76.52;97354.72;10446797;28;20083;-67
2023/08/27 01:32:31;;;;;;;3.63;1.25;;;;;;;19.01;76.25;97341.94;10461354;28;20136;-67
2023/08/27 01:37:52;;;;;;;2.88;1.33;;;;;;;18.93;76.39;97338.91;10442387;28;20120;-67
2023/08/27 01:43:12;;;;;;;3.95;1.50;;;;;;;19.00;76.41;97352.53;10458938;28;20117;-66
2023/08/27 01:48:33;;;;;;;4.78;1.20;;;;;;;19.03;76.39;97339.19;10446356;28;20442;-66
2023/08/27 01:53:54;;;;;;;4.70;1.33;;;;;;;19.04;75.83;97335.69;10442076;28;20116;-67
2023/08/27 01:59:14;;;;;;;2.65;1.20;;;;;;;19.01;76.25;97356.84;10460327;28;20116;-66
2023/08/27 02:04:35;;;;;;;3.78;1.63;;;;;;;18.97;76.27;97339.72;10406221;28;20132;-66
2023/08/27 02:09:56;;;;;;;6.68;1.88;;;;;;;18.93;76.35;97331.16;10418716;28;20167;-66
2023/08/27 02:15:17;;;;;;;2.88;1.30;;;;;;;18.80;76.26;97321.59;10403264;28;20120;-66
2023/08/27 02:20:38;;;;;;;4.90;1.27;;;;;;;18.67;76.32;97325.44;10417791;28;20068;-67
2023/08/27 02:25:59;;;;;;;2.95;1.77;;;;;;;18.57;76.80;97311.72;10403110;28;20121;-66
2023/08/27 02:31:20;;;;;;;2.50;1.02;;;;;;;18.50;76.67;97287.47;10403059;28;20109;-66
2023/08/27 02:36:41;;;;;;;5.25;1.10;;;;;;;18.44;77.12;97286.59;10417598;28;20538;-67
2023/08/27 02:42:02;;;;;;;4.47;1.20;;;;;;;18.37;77.05;97276.50;10400035;28;20070;-66
2023/08/27 02:47:25;;;;;;;2.83;1.35;;;;;;;18.32;77.22;97267.16;10394702;28;20038;-66
2023/08/27 02:52:47;;;;;;;3.25;1.23;;;;;;;18.28;77.27;97255.75;10397482;28;20068;-65
2023/08/27 02:58:08;;;;;;;3.85;1.40;;;;;;;18.23;76.98;97231.56;10401945;28;20119;-66
2023/08/27 03:03:29;;;;;;;5.25;1.15;;;;;;;18.25;77.56;97234.47;10422371;28;20080;-66
2023/08/27 03:08:51;;;;;;;4.30;1.40;;;;;;;18.21;77.44;97237.19;10438935;28;20108;-66
2023/08/27 03:14:12;;;;;;;3.50;1.23;;;;;;;18.13;77.57;97239.75;10428578;28;20431;-67
2023/08/27 03:19:32;;;;;;;2.22;1.08;;;;;;;18.15;77.79;97231.34;10435587;28;20514;-67
2023/08/27 03:24:54;;;;;;;3.35;1.33;;;;;;;18.16;77.55;97246.91;10441848;28;20123;-67
2023/08/27 03:30:15;;;;;;;5.18;1.50;;;;;;;18.18;77.87;97252.63;10440826;28;20179;-66
2023/08/27 03:35:36;;;;;;;3.13;1.25;;;;;;;18.20;77.54;97263.97;10441682;28;20052;-66
2023/08/27 03:40:57;;;;;;;3.53;1.50;;;;;;;18.21;77.83;97254.84;10438333;28;20113;-66
2023/08/27 03:46:18;;;;;;;4.78;1.60;;;;;;;18.30;77.92;97255.81;10441193;28;20124;-66
2023/08/27 03:51:39;;;;;;;3.97;1.67;;;;;;;18.36;78.13;97243.97;10421611;28;20119;-66
2023/08/27 03:56:59;;;;;;;4.05;1.20;;;;;;;18.43;77.91;97223.72;10438249;28;20121;-66
2023/08/27 04:02:20;;;;;;;3.50;1.50;;;;;;;18.45;77.73;97237.91;10440668;28;20080;-67
2023/08/27 04:07:40;;;;;;;3.63;1.52;;;;;;;18.40;77.53;97238.44;10454739;28;20048;-66
2023/08/27 04:13:01;;;;;;;2.25;1.30;;;;;;;18.46;77.87;97233.69;10440968;28;20048;-66
2023/08/27 04:18:22;;;;;;;3.53;1.23;;;;;;;18.58;77.92;97217.06;10456165;28;20501;-66
2023/08/27 04:23:43;;;;;;;4.75;1.13;;;;;;;18.69;77.79;97203.94;10440744;28;20469;-66
2023/08/27 04:29:04;;;;;;;4.40;1.42;;;;;;;18.80;77.73;97211.31;10440348;28;20509;-67
2023/08/27 04:34:25;;;;;;;1.77;1.10;;;;;;;18.89;77.85;97217.91;10440489;28;20132;-66
2023/08/27 04:39:46;;;;;;;3.85;1.40;;;;;;;18.94;77.51;97221.56;10440144;28;20542;-66
2023/08/27 04:45:09;;;;;;;3.70;1.10;;;;;;;18.92;77.50;97230.00;10445540;28;20141;-66
2023/08/27 04:50:29;;;;;;;2.38;1.08;;;;;;;19.03;77.26;97226.78;10448611;28;20071;-66
2023/08/27 04:55:50;;;;;;;3.78;1.35;;;;;;;19.15;77.13;97252.56;10463305;28;20144;-66
2023/08/27 05:01:11;;;;;;;4.22;1.33;;;;;;;19.20;77.25;97235.66;10448215;28;20123;-66
2023/08/27 05:06:31;;;;;;;6.70;1.45;;;;;;;19.25;77.01;97220.25;10447734;28;20083;-66
2023/08/27 05:11:52;;;;;;;6.15;1.52;;;;;;;19.24;77.07;97213.16;10462772;28;20125;-66
2023/08/27 05:17:13;;;;;;;4.07;1.70;;;;;;;19.28;77.06;97213.25;10447317;28;20112;-66
2023/08/27 05:22:34;;;;;;;3.22;1.42;;;;;;;19.38;76.72;97224.81;10447778;28;20044;-67
2023/08/27 05:27:55;;;;;;;5.80;1.45;;;;;;;19.47;77.43;97212.31;10462112;28;20112;-66
2023/08/27 05:33:16;;;;;;;4.72;1.42;;;;;;;19.59;76.65;97240.22;10446785;28;20072;-66
2023/08/27 05:38:37;;;;;;;3.80;1.90;;;;;;;19.76;76.63;97250.53;10446640;28;20104;-67
2023/08/27 05:43:58;;;;;;;5.63;2.03;;;;;;;19.82;76.82;97241.47;10433128;28;20045;-66
2023/08/27 05:49:19;;;;;;;5.50;2.00;;;;;;;19.98;76.30;97236.19;10446318;28;20068;-66
2023/08/27 05:54:39;;;;;;;3.72;1.70;;;;;;;20.02;76.00;97241.94;10444734;28;20080;-66
2023/08/27 06:00:00;;;;;;;7.13;2.53;;;;;;;19.91;75.49;97234.59;10445825;28;20147;-66
2023/08/27 06:05:21;;;;;;;5.53;2.42;;;;;;;19.82;75.62;97247.13;10461002;28;20137;-66
2023/08/27 06:10:41;;;;;;;6.85;1.98;;;;;;;19.78;76.62;97259.06;10445449;28;20120;-66
2023/08/27 06:16:03;;;;;;;6.93;1.85;;;;;;;19.88;76.90;97279.16;10460379;28;20107;-67
2023/08/27 06:21:24;;;;;;;4.32;1.58;;;;;;;19.93;76.75;97296.97;10445193;28;20191;-67
2023/08/27 06:26:45;;;;;;;4.35;1.70;;;;;;;20.04;76.73;97307.13;10459786;28;20044;-66
2023/08/27 06:32:05;;;;;;;3.35;1.55;;;;;;;20.11;76.09;97299.50;10459458;28;20044;-67
2023/08/27 06:37:28;;;;;;;4.28;1.58;;;;;;;20.19;76.49;97285.53;10444356;28;20053;-67
2023/08/27 06:42:49;;;;;;;4.22;1.45;;;;;;;20.35;76.20;97279.47;10443996;28;20121;-67
2023/08/27 06:48:15;;;;;;;4.45;1.45;;;;;;;20.43;75.79;97245.66;10444302;28;20060;-66
2023/08/27 06:53:38;;;;;;;3.60;1.35;;;;;;;20.40;75.35;97233.56;10443855;28;20202;-67
2023/08/27 06:58:59;;;;;;;4.43;1.25;;;;;;;20.47;75.79;97231.59;10458492;28;20087;-66
2023/08/27 07:04:20;;;;;;;3.75;1.40;;;;;;;20.44;74.95;97249.94;10443448;28;20124;-66
2023/08/27 07:09:40;;;;;;;3.75;1.50;;;;;;;20.17;75.13;97263.53;10442667;28;20056;-66
2023/08/27 07:15:02;;;;;;;3.88;1.48;;;;;;;20.12;75.75;97256.31;10457993;28;20096;-66
2023/08/27 07:20:23;;;;;;;2.97;1.10;;;;;;;20.23;75.98;97262.94;10442595;28;20045;-66
2023/08/27 07:25:44;;;;;;;3.13;1.45;;;;;;;20.24;75.21;97282.09;10442433;28;20076;-66
2023/08/27 07:31:05;;;;;;;3.97;1.33;;;;;;;20.25;75.10;97297.69;10428863;28;20517;-66
2023/08/27 07:36:26;;;;;;;3.70;1.40;;;;;;;20.31;75.46;97299.94;10428583;28;20519;-66
2023/08/27 07:41:49;;;;;;;5.57;1.65;;;;;;;20.32;75.13;97295.00;10442656;28;20120;-67
2023/08/27 07:47:09;;;;;;;4.28;1.65;;;;;;;20.46;75.48;97284.00;10441950;28;20460;-66
2023/08/27 07:52:31;;;;;;;3.38;2.08;;;;;;;20.65;75.09;97273.75;10441945;28;20116;-66
2023/08/27 07:57:51;;;;;;;3.70;1.45;;;;;;;20.67;75.54;97256.81;10441471;28;20129;-67
2023/08/27 08:03:12;;;;;;;4.93;1.33;;;;;;;20.66;75.38;97239.06;10441302;28;20124;-66
2023/08/27 08:08:33;;;;;;;3.83;1.77;;;;;;;20.62;74.75;97241.81;10456445;28;20048;-66
2023/08/27 08:13:54;;;;;;;2.83;1.63;;;;;;;20.81;75.05;97223.75;10456279;28;20117;-66
2023/08/27 08:19:15;;;;;;;3.15;1.80;;;;;;;21.32;74.96;97216.19;10459996;28;20124;-66
2023/08/27 08:24:36;;;;;;;3.35;1.90;;;;;;;21.99;74.15;97213.66;10464861;28;20478;-66
2023/08/27 08:29:56;;;;;;;3.42;2.13;;;;;;;23.10;72.85;97220.06;10464396;28;20116;-66
2023/08/27 08:35:17;;;;;;;5.68;2.22;;;;;;;23.28;71.14;97228.06;10449410;28;20128;-67
2023/08/27 08:40:45;;;;;;;4.40;2.33;;;;;;;23.01;70.67;97210.00;10449062;28;20061;-67
2023/08/27 08:46:06;;;;;;;6.25;3.03;;;;;;;22.75;70.77;97218.22;10463325;28;20116;-67
2023/08/27 08:51:27;;;;;;;4.68;2.22;;;;;;;22.36;70.95;97226.28;10463525;28;20120;-67
2023/08/27 08:56:51;;;;;;;3.58;2.20;;;;;;;22.09;70.86;97233.00;10448827;28;20514;-67
2023/08/27 09:02:12;;;;;;;3.67;2.10;;;;;;;21.83;71.56;97242.56;10448361;28;20243;-67
2023/08/27 09:07:33;;;;;;;2.85;1.50;;;;;;;21.77;71.33;97248.16;10447709;28;20063;-67
2023/08/27 09:12:57;;;;;;;4.38;1.48;;;;;;;21.84;71.44;97235.47;10461794;28;20458;-67
2023/08/27 09:18:17;;;;;;;4.43;1.27;;;;;;;21.82;71.43;97226.94;10434036;28;20115;-67
2023/08/27 09:23:38;;;;;;;3.20;1.70;;;;;;;21.95;70.65;97214.34;10462426;28;20490;-67
2023/08/27 09:29:01;;;;;;;3.38;1.70;;;;;;;22.19;70.57;97190.50;10446776;28;20121;-67
2023/08/27 09:34:21;;;;;;;;;;;;;;;22.23;70.33;97193.44;10462326;28;20068;-67
2023/08/27 09:39:44;;;;;;;2.00;1.25;;;;;;;22.24;69.86;97189.16;10461541;28;19955;-68
2023/08/27 09:45:06;;;;;;;2.65;1.60;;;;;;;22.13;70.20;97207.50;10446455;28;20061;-67
2023/08/27 09:50:30;;;;;;;3.13;1.50;;;;;;;21.90;70.03;97204.31;10460318;28;20454;-67
2023/08/27 09:55:50;;;;;;;3.15;1.60;;;;;;;21.89;70.63;97205.72;10460092;28;20138;-67
2023/08/27 10:01:11;;;;;;;2.80;1.73;;;;;;;22.08;69.62;97203.88;10460683;28;20124;-67
2023/08/27 10:06:35;;;;;;;5.25;1.70;;;;;;;22.09;70.08;97221.66;10460960;28;20076;-66
2023/08/27 10:11:56;;;;;;;3.63;1.60;;;;;;;21.99;70.53;97217.22;10459478;28;20382;-66
2023/08/27 10:17:17;;;;;;;2.25;1.40;;;;;;;22.22;70.28;97218.28;10445224;28;20142;-67
2023/08/27 10:22:38;;;;;;;3.53;1.40;;;;;;;22.46;69.68;97212.19;10459999;28;20115;-67
2023/08/27 10:27:59;;;;;;;3.58;1.88;;;;;;;22.48;69.38;97211.50;10444970;28;20065;-67
2023/08/27 10:33:20;;;;;;;4.80;1.67;;;;;;;22.64;69.63;97202.44;10459532;28;20112;-67
2023/08/27 10:38:41;;;;;;;3.30;1.63;;;;;;;22.59;69.08;97200.97;10459535;28;20091;-67
2023/08/27 10:44:02;;;;;;;5.20;3.05;;;;;;;22.17;69.11;97190.50;10443657;28;20045;-66
2023/08/27 10:49:23;;;;;;;4.57;2.00;;;;;;;21.86;69.54;97189.34;10444092;28;20455;-67
2023/08/27 10:54:47;;;;;;;2.78;1.92;;;;;;;21.65;70.36;97182.66;10458861;28;20573;-67
2023/08/27 11:00:12;;;;;;;3.58;1.80;;;;;;;21.40;70.46;97190.78;10457630;28;20064;-67
2023/08/27 11:05:33;;;;;;;4.72;2.03;;;;;;;21.50;70.76;97192.34;10458262;28;20191;-67
2023/08/27 11:10:54;;;;;;;3.00;1.73;;;;;;;21.71;71.65;97199.75;10443336;28;20128;-67
2023/08/27 11:16:15;;;;;;;4.43;1.48;;;;;;;21.90;71.77;97181.56;10458030;28;20094;-67
2023/08/27 11:21:45;;;;;;;4.45;1.50;;;;;;;22.32;71.45;97185.72;10457662;28;20527;-67
2023/08/27 11:27:06;;;;;;;2.17;1.50;;;;;;;22.66;70.68;97188.25;10442853;28;20083;-67
2023/08/27 11:32:27;;;;;;;3.60;1.35;;;;;;;23.02;70.06;97193.63;10457404;28;20074;-67
2023/08/27 11:37:47;;;;;;;2.47;1.48;;;;;;;23.10;69.57;97194.44;10457178;28;20125;-67
2023/08/27 11:43:08;;;;;;;2.35;1.25;;;;;;;22.87;68.64;97178.53;10456128;28;20223;-67
2023/08/27 11:48:29;;;;;;;2.25;1.23;;;;;;;22.94;68.97;97182.88;10455831;28;20471;-66
2023/08/27 11:53:50;;;;;;;4.57;1.58;;;;;;;23.13;68.70;97186.63;10440932;28;20084;-67
2023/08/27 11:59:13;;;;;;;3.00;1.35;;;;;;;22.85;68.47;97175.69;10441392;28;20175;-67
2023/08/27 12:04:33;;;;;;;4.32;1.55;;;;;;;22.44;68.09;97183.75;10402916;28;20120;-67
2023/08/27 12:09:54;;;;;;;3.08;1.48;;;;;;;22.10;69.50;97189.72;10400663;28;20495;-67
2023/08/27 12:15:15;;;;;;;2.30;1.50;;;;;;;22.15;69.72;97187.63;10415154;28;20046;-66
2023/08/27 12:20:37;;;;;;;4.03;2.00;;;;;;;22.33;69.94;97179.34;10386685;28;20542;-66
2023/08/27 12:25:58;;;;;;;3.88;1.77;;;;;;;22.37;68.81;97176.53;10400029;28;20193;-67
2023/08/27 12:31:24;;;;;;;2.63;2.00;;;;;;;21.98;69.45;97167.50;10387089;28;20065;-67
2023/08/27 12:36:45;;;;;;;3.20;1.70;;;;;;;21.96;70.36;97153.25;10386762;28;20062;-67
2023/08/27 12:42:06;;;;;;;3.03;1.52;;;;;;;21.93;70.18;97148.25;10399892;28;20192;-67
2023/08/27 12:47:27;;;;;;;1.88;0.93;;;;;;;21.87;70.36;97146.03;10399951;28;20107;-67
2023/08/27 12:52:47;;;;;;;3.78;1.20;;;;;;;21.72;70.19;97147.25;10414453;28;20125;-67
2023/08/27 12:58:09;;;;;;;7.57;2.38;;;;;;;21.78;69.66;97126.72;10414335;28;20072;-67
2023/08/27 13:03:29;;;;;;;3.00;1.33;;;;;;;21.78;70.25;97138.81;10414843;28;20117;-67
2023/08/27 13:08:50;;;;;;;2.58;1.05;;;;;;;21.83;70.83;97140.31;10421677;28;20117;-67
2023/08/27 13:14:11;;;;;;;2.38;1.38;;;;;;;22.28;70.52;97121.69;10421438;28;20526;-67
2023/08/27 13:19:32;;;;;;;2.63;1.35;;;;;;;22.84;70.06;97132.28;10421401;28;20518;-67
2023/08/27 13:24:53;;;;;;;3.05;1.27;;;;;;;23.01;68.97;97140.97;10421463;28;20113;-67
2023/08/27 13:30:13;;;;;;;2.00;1.55;;;;;;;22.89;68.66;97129.50;10406161;28;20170;-67
2023/08/27 13:35:34;;;;;;;1.45;1.00;;;;;;;22.70;68.45;97120.03;10420779;28;20161;-67
2023/08/27 13:40:56;;;;;;;4.18;1.10;;;;;;;22.70;68.84;97137.81;10415898;28;20526;-67
2023/08/27 13:46:17;;;;;;;4.43;1.35;;;;;;;22.78;68.16;97135.06;10420238;28;20481;-67
2023/08/27 13:51:37;;;;;;;3.40;1.25;;;;;;;22.18;67.98;97138.63;10398979;28;20076;-67
2023/08/27 13:56:58;;;;;;;2.92;1.20;;;;;;;21.78;68.74;97150.16;10415579;28;20081;-67
2023/08/27 14:02:19;;;;;;;3.80;1.27;;;;;;;21.65;68.75;97162.75;10433343;28;20140;-67
2023/08/27 14:07:40;;;;;;;2.72;1.40;;;;;;;21.44;69.30;97192.97;10445649;28;20064;-67
2023/08/27 14:13:00;;;;;;;3.45;1.48;;;;;;;21.29;69.91;97165.75;10459556;28;20116;-67
2023/08/27 14:18:21;;;;;;;2.72;1.40;;;;;;;21.37;70.17;97149.56;10444195;28;20061;-67
2023/08/27 14:23:42;;;;;;;2.80;1.50;;;;;;;21.14;70.30;97176.13;10460020;28;20118;-67
2023/08/27 14:29:03;;;;;;;2.13;1.40;;;;;;;20.75;71.46;97172.63;10444768;28;20037;-67
2023/08/27 14:34:24;;;;;;;1.83;1.35;;;;;;;20.46;72.71;97162.84;10458589;28;20124;-67
2023/08/27 14:39:48;;;;;;;2.40;1.52;;;;;;;20.14;74.27;97153.66;10459053;28;20076;-67
2023/08/27 14:45:09;;;;;;;4.28;1.60;;;;;;;20.25;75.74;97146.78;10444159;28;20538;-67
2023/08/27 14:50:30;;;;;;;4.32;1.83;;;;;;;20.42;75.78;97156.34;10457687;28;20072;-66
2023/08/27 14:55:50;;;;;;;4.88;1.90;;;;;;;20.23;75.92;97175.09;10443782;28;20461;-67
2023/08/27 15:01:11;;;;;;;4.15;1.90;;;;;;;19.90;77.47;97168.75;10458478;28;20076;-66
2023/08/27 15:06:32;;;;;;;2.95;1.90;;;;;;;19.72;79.24;97174.72;10443114;28;20506;-67
2023/08/27 15:11:53;;;;;;;2.97;1.67;;;;;;;19.70;80.55;97146.38;10458260;28;20147;-67
2023/08/27 15:17:14;;;;;;;6.03;2.22;;;;;;;19.80;80.73;97159.31;10442817;28;20121;-67
2023/08/27 15:22:35;;;;;;;1.95;1.45;;;;;;;19.72;81.21;97145.69;10457188;28;20243;-67
2023/08/27 15:27:55;;;;;;;4.47;2.65;;;;;;;19.75;81.48;97133.00;10457824;28;20120;-67
2023/08/27 15:33:16;;;;;;;2.92;1.75;;;;;;;19.92;82.51;97122.75;10457143;28;20143;-67
2023/08/27 15:38:37;;;;;;;7.43;2.15;;;;;;;20.07;81.74;97101.81;10457145;28;20136;-67
2023/08/27 15:43:59;;;;;;;2.75;1.80;;;;;;;20.09;81.44;97121.69;10456862;28;20068;-67
2023/08/27 15:49:22;;;;;;;2.20;1.92;;;;;;;20.04;81.67;97125.81;10456782;28;20141;-67
2023/08/27 15:54:43;;;;;;;2.50;1.80;;;;;;;19.90;82.48;97106.44;10456467;28;20494;-67
2023/08/27 16:00:06;;;;;;;2.95;1.83;;;;;;;20.05;83.06;97101.78;10441712;28;20629;-67
2023/08/27 16:05:31;;;;;;;5.10;2.10;;;;;;;20.21;82.50;97127.59;10455936;28;20164;-66
2023/08/27 16:10:52;;;;;;;6.82;2.38;;;;;;;20.16;82.08;97137.41;10455201;28;20140;-67
2023/08/27 16:16:12;;;;;;;4.65;1.92;;;;;;;20.05;82.37;97144.25;10456269;28;20508;-67
2023/08/27 16:21:34;;;;;;;5.60;2.10;;;;;;;20.03;82.65;97130.06;10454940;28;20040;-66
2023/08/27 16:26:55;;;;;;;3.22;2.15;;;;;;;20.07;83.01;97149.97;10456053;28;20487;-67
2023/08/27 16:32:15;;;;;;;3.80;1.90;;;;;;;20.07;83.12;97158.47;10455740;28;20497;-67
2023/08/27 16:37:36;;;;;;;4.97;2.30;;;;;;;19.97;83.21;97107.97;10455897;28;20065;-67
2023/08/27 16:42:57;;;;;;;3.35;2.00;;;;;;;19.99;83.23;97101.66;10464180;28;20116;-67
2023/08/27 16:48:17;;;;;;;2.50;1.80;;;;;;;19.97;83.01;97107.25;10463622;28;20482;-67
2023/08/27 16:53:38;;;;;;;3.22;1.90;;;;;;;20.07;83.58;97106.75;10462768;28;20555;-66
2023/08/27 16:58:59;;;;;;;4.28;2.08;;;;;;;20.18;83.29;97123.31;10463191;28;20127;-67
2023/08/27 17:04:20;;;;;;;3.25;2.22;;;;;;;20.21;82.97;97146.72;10431224;28;20128;-67
2023/08/27 17:09:41;;;;;;;4.60;2.35;;;;;;;20.06;82.56;97159.84;10406733;28;20486;-67
2023/08/27 17:15:03;;;;;;;3.75;1.85;;;;;;;19.82;82.40;97153.69;10421465;28;20048;-66
2023/08/27 17:20:23;;;;;;;2.67;1.90;;;;;;;19.68;83.46;97154.78;10421858;28;20099;-67
2023/08/27 17:25:44;;;;;;;3.53;1.95;;;;;;;19.68;84.01;97132.13;10420986;28;20141;-67
2023/08/27 17:31:05;;;;;;;2.55;1.52;;;;;;;19.72;83.43;97151.34;10406161;28;20073;-66
2023/08/27 17:36:26;;;;;;;3.70;1.65;;;;;;;19.70;83.29;97146.38;10421028;28;20053;-67
2023/08/27 17:41:50;;;;;;;2.38;0.77;;;;;;;19.65;83.17;97181.63;10392572;28;20116;-67
2023/08/27 17:47:11;;;;;;;2.05;1.00;;;;;;;19.61;83.20;97195.69;10405041;28;20046;-67
2023/08/27 17:52:32;;;;;;;1.55;0.85;;;;;;;19.53;82.77;97200.41;10405364;28;20552;-66
2023/08/27 17:57:53;;;;;;;2.70;0.80;;;;;;;19.41;82.59;97215.72;10419702;28;20121;-67
2023/08/27 18:03:14;;;;;;;3.28;0.90;;;;;;;19.23;81.77;97217.38;10419854;28;20080;-67
2023/08/27 18:08:34;;;;;;;2.65;1.23;;;;;;;19.12;81.94;97214.28;10394154;28;20076;-66
2023/08/27 18:13:55;;;;;;;5.22;1.00;;;;;;;19.04;82.14;97202.75;10419152;28;20156;-66
2023/08/27 18:19:16;;;;;;;8.68;1.08;;;;;;;18.93;81.88;97201.06;10419198;28;20129;-67
2023/08/27 18:24:38;;;;;;;2.13;0.90;;;;;;;18.80;81.91;97205.66;10411978;28;20302;-66
2023/08/27 18:29:59;;;;;;;2.47;0.70;;;;;;;18.78;81.75;97207.72;10414447;28;20062;-67
2023/08/27 18:35:19;;;;;;;2.80;0.75;;;;;;;18.78;81.85;97219.03;10418366;28;20116;-67
2023/08/27 18:40:40;;;;;;;2.25;1.00;;;;;;;18.75;81.47;97226.03;10418624;28;20088;-67
2023/08/27 18:46:01;;;;;;;3.20;1.00;;;;;;;18.69;81.38;97228.66;10403220;28;20580;-67
2023/08/27 18:51:21;;;;;;;2.10;0.98;;;;;;;18.66;81.74;97232.84;10417657;28;20119;-67
2023/08/27 18:56:42;;;;;;;3.00;1.00;;;;;;;18.66;81.15;97246.97;10370975;28;20053;-67
2023/08/27 19:02:04;;;;;;;4.50;1.35;;;;;;;18.62;81.41;97246.81;10400011;28;20132;-66
2023/08/27 19:07:25;;;;;;;1.58;0.70;;;;;;;18.64;81.33;97256.09;10443679;28;20116;-67
2023/08/27 19:12:46;;;;;;;2.05;0.80;;;;;;;18.65;81.15;97248.34;10458218;28;20609;-66
2023/08/27 19:18:07;;;;;;;2.50;1.10;;;;;;;18.66;81.05;97252.63;10442964;28;20075;-67
2023/08/27 19:23:28;;;;;;;3.33;0.90;;;;;;;18.69;81.01;97254.84;10442639;28;20548;-66
2023/08/27 19:28:49;;;;;;;2.95;1.15;;;;;;;18.66;81.05;97263.94;10456529;28;20075;-66
2023/08/27 19:34:10;;;;;;;2.50;1.08;;;;;;;18.67;81.09;97262.53;10442723;28;20114;-66
2023/08/27 19:39:31;;;;;;;5.22;1.30;;;;;;;18.63;80.86;97268.06;10457197;28;20434;-67
2023/08/27 19:44:51;;;;;;;4.47;1.30;;;;;;;18.56;80.65;97279.19;10442250;28;20060;-67
2023/08/27 19:50:12;;;;;;;4.03;1.00;;;;;;;18.57;80.54;97282.72;10427886;28;20186;-66
2023/08/27 19:55:33;;;;;;;3.42;1.02;;;;;;;18.50;80.39;97279.00;10456842;28;20119;-67
2023/08/27 20:00:57;;;;;;;3.53;1.00;;;;;;;18.45;80.58;97288.75;10456440;28;20116;-66
2023/08/27 20:06:18;;;;;;;2.97;1.00;;;;;;;18.39;80.12;97285.03;10441470;28;20505;-67
2023/08/27 20:11:39;;;;;;;4.70;1.23;;;;;;;18.37;80.23;97282.88;10456470;28;20120;-66
2023/08/27 20:17:00;;;;;;;5.63;1.38;;;;;;;18.35;79.85;97288.47;10448211;28;20075;-66
2023/08/27 20:22:23;;;;;;;2.25;1.05;;;;;;;18.26;79.79;97281.84;10464824;28;20072;-67
2023/08/27 20:27:44;;;;;;;2.47;1.33;;;;;;;18.22;79.95;97298.66;10449680;28;20080;-67
2023/08/27 20:33:05;;;;;;;3.42;1.27;;;;;;;18.16;80.03;97306.22;10464810;28;20394;-66
2023/08/27 20:38:26;;;;;;;4.32;1.35;;;;;;;18.13;79.93;97313.19;10464128;28;20124;-67
2023/08/27 20:43:47;;;;;;;6.15;1.50;;;;;;;18.12;80.01;97311.75;10463387;28;20124;-66
2023/08/27 20:49:08;;;;;;;2.40;1.00;;;;;;;18.07;80.08;97305.25;10463830;28;20064;-66
2023/08/27 20:54:29;;;;;;;2.92;1.40;;;;;;;18.05;80.03;97307.28;10463509;28;20134;-66
2023/08/27 20:59:49;;;;;;;4.75;1.48;;;;;;;18.00;80.14;97309.28;10434991;28;20081;-66
2023/08/27 21:05:10;;;;;;;2.40;1.00;;;;;;;17.99;80.21;97308.53;10463698;28;20076;-66
2023/08/27 21:10:31;;;;;;;2.45;1.20;;;;;;;17.95;80.52;97304.84;10447935;28;20439;-65
2023/08/27 21:15:53;;;;;;;4.20;1.15;;;;;;;17.90;80.66;97311.78;10462936;28;20120;-66
2023/08/27 21:21:14;;;;;;;4.30;0.95;;;;;;;17.87;81.01;97313.09;10447594;28;20526;-66
2023/08/27 21:26:35;;;;;;;1.48;0.95;;;;;;;17.83;81.21;97305.19;10462501;28;20072;-66
2023/08/27 21:31:56;;;;;;;5.78;1.02;;;;;;;17.80;81.45;97305.81;10461039;28;20136;-66
2023/08/27 21:37:17;;;;;;;2.60;0.90;;;;;;;17.76;81.81;97317.69;10447464;28;20080;-66
2023/08/27 21:42:37;;;;;;;4.70;1.10;;;;;;;17.69;81.80;97325.22;10461660;28;20069;-66
2023/08/27 21:47:58;;;;;;;3.60;1.00;;;;;;;17.68;82.23;97323.03;10446665;28;20462;-66
2023/08/27 21:53:19;;;;;;;1.33;0.63;;;;;;;17.71;82.31;97333.03;10461090;28;20116;-66
2023/08/27 21:58:40;;;;;;;1.45;0.80;;;;;;;17.68;82.89;97346.34;10461081;28;20056;-65
2023/08/27 22:04:01;;;;;;;2.72;0.82;;;;;;;17.69;83.23;97347.06;10431792;28;20077;-66
2023/08/27 22:09:22;;;;;;;2.75;0.90;;;;;;;17.66;83.51;97354.00;10404563;28;20472;-66
2023/08/27 22:14:44;;;;;;;3.88;0.80;;;;;;;17.68;83.51;97354.09;10419965;28;20437;-66
2023/08/27 22:20:06;;;;;;;1.27;0.82;;;;;;;17.60;83.38;97379.94;10404319;28;20069;-65
2023/08/27 22:25:27;;;;;;;1.85;0.60;;;;;;;17.55;83.83;97369.13;10404142;28;20069;-66
2023/08/27 22:30:48;;;;;;;1.85;0.80;;;;;;;17.48;84.20;97368.22;10418833;28;20500;-65
2023/08/27 22:36:08;;;;;;;2.42;0.90;;;;;;;17.41;84.62;97372.22;10417672;28;20456;-65
2023/08/27 22:41:29;;;;;;;1.27;0.60;;;;;;;17.42;84.50;97371.56;10403481;28;20121;-66
2023/08/27 22:46:50;;;;;;;3.50;0.75;;;;;;;17.41;84.53;97369.38;10403133;28;20120;-65
2023/08/27 22:52:10;;;;;;;1.67;0.63;;;;;;;17.41;84.37;97361.66;10417877;28;20080;-65
2023/08/27 22:57:31;;;;;;;2.58;0.75;;;;;;;17.37;84.65;97355.88;10416468;28;20132;-66
2023/08/27 23:02:52;;;;;;;1.77;0.70;;;;;;;17.32;84.66;97343.00;10416261;28;20080;-66
2023/08/27 23:08:13;;;;;;;1.27;0.70;;;;;;;17.29;84.60;97335.84;10415076;28;20041;-66
2023/08/27 23:13:34;;;;;;;1.38;0.70;;;;;;;17.28;84.55;97342.88;10409853;28;20037;-66
2023/08/27 23:18:55;;;;;;;2.58;0.60;;;;;;;17.28;84.46;97340.03;10416932;28;20130;-66
2023/08/27 23:24:17;;;;;;;2.45;0.80;;;;;;;17.21;83.98;97332.00;10416603;28;20037;-66
2023/08/27 23:29:41;;;;;;;3.65;0.90;;;;;;;17.17;84.35;97318.47;10395484;28;20136;-66
2023/08/27 23:35:04;;;;;;;4.00;0.60;;;;;;;17.19;84.46;97327.03;10401473;28;20049;-66
2023/08/27 23:40:25;;;;;;;2.28;0.68;;;;;;;17.16;84.24;97339.59;10416178;28;20121;-66
2023/08/27 23:45:45;;;;;;;2.15;0.60;;;;;;;17.12;84.34;97323.25;10396169;28;20117;-66
2023/08/27 23:51:06;;;;;;;2.60;0.55;;;;;;;17.09;84.25;97310.47;10415581;28;20121;-67
2023/08/27 23:56:27;;;;;;;1.10;0.63;;;;;;;17.07;83.77;97315.31;10407018;28;20121;-66
